Time;durP1;ratioP1;P1;durP2;ratioP2;P2;SDS_P1;SDS_P2;PMS_P1;PMS_P2;Temp;Humidity;BMP_temperature;BMP_pressure;BME280_temperature;BME280_humidity;BME280_pressure;Samples;Min_cycle;Max_cycle;Signal;HPM_P1;HPM_P2
2021/07/18 00:01:35;;;;;;;16.50;13.97;;;18.40;99.90;;;;;;5065517;27;20611;-90
2021/07/18 00:04:02;;;;;;;13.90;12.53;;;18.30;99.90;;;;;;5047697;28;20652;-90
2021/07/18 00:06:31;;;;;;;14.77;13.17;;;18.30;99.90;;;;;;5046768;28;20671;-89
2021/07/18 00:08:58;;;;;;;16.30;13.13;;;18.40;99.90;;;;;;5047019;27;20622;-90
2021/07/18 00:11:25;;;;;;;16.77;12.90;;;18.30;99.90;;;;;;5047063;27;20611;-89
2021/07/18 00:13:52;;;;;;;15.90;14.40;;;18.30;99.90;;;;;;5042258;27;20650;-89
2021/07/18 00:16:19;;;;;;;17.37;12.97;;;18.20;99.90;;;;;;5045824;28;20722;-89
2021/07/18 00:18:46;;;;;;;17.37;14.33;;;18.20;99.90;;;;;;5046713;28;20703;-88
2021/07/18 00:21:13;;;;;;;18.43;14.10;;;18.10;99.90;;;;;;5046969;28;20617;-88
2021/07/18 00:23:44;;;;;;;13.70;12.30;;;18.10;99.90;;;;;;5050350;28;20622;-88
2021/07/18 00:26:11;;;;;;;14.00;11.80;;;18.10;99.90;;;;;;5049928;27;20632;-89
2021/07/18 00:28:38;;;;;;;18.40;13.37;;;18.10;99.90;;;;;;5045797;27;20654;-89
2021/07/18 00:31:05;;;;;;;17.13;13.60;;;18.10;99.90;;;;;;5049906;27;20618;-88
2021/07/18 00:33:32;;;;;;;13.80;12.03;;;18.00;99.90;;;;;;5050164;27;20626;-89
2021/07/18 00:35:59;;;;;;;16.70;14.10;;;18.00;99.90;;;;;;5050000;28;20718;-89
2021/07/18 00:38:27;;;;;;;16.40;13.10;;;17.90;99.90;;;;;;5050209;28;21087;-90
2021/07/18 00:40:55;;;;;;;14.50;12.93;;;18.00;99.90;;;;;;5049909;28;20618;-90
2021/07/18 00:43:22;;;;;;;14.30;12.83;;;17.90;99.90;;;;;;5049892;28;20640;-90
2021/07/18 00:45:55;;;;;;;15.00;13.50;;;17.90;99.90;;;;;;5048088;27;20653;-89
2021/07/18 00:48:22;;;;;;;17.43;13.50;;;17.90;99.90;;;;;;5050569;28;21058;-89
2021/07/18 00:50:49;;;;;;;18.50;16.03;;;17.80;99.90;;;;;;5048348;27;21280;-89
2021/07/18 00:53:19;;;;;;;15.90;14.23;;;17.70;99.90;;;;;;5108828;27;20682;-89
2021/07/18 00:55:46;;;;;;;14.63;12.73;;;17.70;99.90;;;;;;5049006;28;20622;-89
2021/07/18 00:58:15;;;;;;;12.50;11.20;;;17.70;99.90;;;;;;5049564;27;21063;-89
2021/07/18 01:00:45;;;;;;;15.63;12.83;;;17.60;99.90;;;;;;5047653;27;20638;-88
2021/07/18 01:03:13;;;;;;;15.17;11.50;;;17.60;99.90;;;;;;5049295;28;21181;-89
2021/07/18 01:05:41;;;;;;;13.30;11.57;;;17.60;99.90;;;;;;5048367;27;21200;-88
2021/07/18 01:08:10;;;;;;;16.53;12.57;;;17.50;99.90;;;;;;5047435;28;20609;-88
2021/07/18 01:10:39;;;;;;;11.90;10.70;;;17.50;99.90;;;;;;5049212;28;20635;-89
2021/07/18 01:13:07;;;;;;;13.17;11.00;;;17.40;99.90;;;;;;5044839;28;20924;-89
2021/07/18 01:15:39;;;;;;;10.87;9.87;;;17.50;99.90;;;;;;5046412;27;20732;-88
2021/07/18 01:18:08;;;;;;;13.20;10.70;;;17.50;99.90;;;;;;5046926;28;20661;-88
2021/07/18 01:20:39;;;;;;;14.57;10.27;;;17.40;99.90;;;;;;5049092;27;20616;-89
2021/07/18 01:23:09;;;;;;;14.10;9.90;;;17.40;99.90;;;;;;5049350;28;20685;-88
2021/07/18 01:25:39;;;;;;;12.67;10.10;;;17.40;99.90;;;;;;5049222;27;20625;-87
2021/07/18 01:28:09;;;;;;;14.23;9.87;;;17.40;99.90;;;;;;5049259;27;20660;-88
2021/07/18 01:30:37;;;;;;;10.90;9.07;;;17.30;99.90;;;;;;5049219;27;20626;-87
2021/07/18 01:33:06;;;;;;;12.07;9.37;;;17.30;99.90;;;;;;5049136;27;20659;-87
2021/07/18 01:35:34;;;;;;;15.23;9.83;;;17.30;99.90;;;;;;5048582;27;20990;-86
2021/07/18 01:38:08;;;;;;;11.33;9.50;;;17.30;99.90;;;;;;5048915;28;21091;-88
2021/07/18 01:40:40;;;;;;;10.30;8.57;;;17.20;99.90;;;;;;5049168;28;20626;-88
2021/07/18 01:43:09;;;;;;;11.93;8.33;;;17.20;99.90;;;;;;5049073;27;21202;-88
2021/07/18 01:45:38;;;;;;;14.20;8.53;;;17.10;99.90;;;;;;5048871;28;20659;-88
2021/07/18 01:48:09;;;;;;;8.97;8.10;;;17.10;99.90;;;;;;5049368;28;21047;-88
2021/07/18 01:50:38;;;;;;;9.83;8.93;;;17.10;99.90;;;;;;5048681;27;20622;-88
2021/07/18 01:53:06;;;;;;;15.87;8.97;;;17.10;99.90;;;;;;5068693;27;21266;-89
2021/07/18 01:55:36;;;;;;;8.13;7.33;;;17.10;99.90;;;;;;5048932;27;20717;-89
2021/07/18 01:58:04;;;;;;;8.80;7.43;;;17.10;99.90;;;;;;5044204;27;22624;-88
2021/07/18 02:00:32;;;;;;;8.20;7.00;;;17.00;99.90;;;;;;5048815;27;20630;-86
2021/07/18 02:03:02;;;;;;;7.77;6.70;;;17.00;99.90;;;;;;5048920;27;20656;-88
2021/07/18 02:05:32;;;;;;;8.53;7.70;;;17.00;99.90;;;;;;5048366;28;20612;-88
2021/07/18 02:08:01;;;;;;;10.07;7.77;;;17.00;99.90;;;;;;5048355;27;20724;-88
2021/07/18 02:10:29;;;;;;;6.90;6.30;;;17.00;99.90;;;;;;5048489;28;20724;-88
2021/07/18 02:12:59;;;;;;;7.50;6.37;;;16.90;99.90;;;;;;5043084;27;20741;-88
2021/07/18 02:15:26;;;;;;;7.50;6.70;;;16.90;99.90;;;;;;5048594;28;20632;-88
2021/07/18 02:17:55;;;;;;;8.00;6.20;;;16.90;99.90;;;;;;5048783;28;20621;-89
2021/07/18 02:20:23;;;;;;;8.20;7.20;;;16.90;99.90;;;;;;5048970;28;20622;-87
2021/07/18 02:22:52;;;;;;;11.20;7.23;;;16.90;99.90;;;;;;5048220;28;20683;-89
2021/07/18 02:25:22;;;;;;;6.87;6.20;;;16.90;99.90;;;;;;5047760;28;20628;-89
2021/07/18 02:27:50;;;;;;;8.57;7.17;;;16.80;99.90;;;;;;5044037;27;20648;-89
2021/07/18 02:30:22;;;;;;;10.63;7.20;;;16.80;99.90;;;;;;5048440;28;20637;-88
2021/07/18 02:32:53;;;;;;;8.00;7.00;;;16.80;99.90;;;;;;5048745;28;20956;-89
2021/07/18 02:35:23;;;;;;;7.30;6.60;;;16.70;99.90;;;;;;5047669;27;20621;-89
2021/07/18 02:37:53;;;;;;;7.20;6.50;;;16.70;99.90;;;;;;5048166;27;20631;-88
2021/07/18 02:40:22;;;;;;;8.47;7.40;;;16.70;99.90;;;;;;5047770;27;21314;-87
2021/07/18 02:42:51;;;;;;;8.60;6.27;;;16.70;99.90;;;;;;5048273;27;20635;-88
2021/07/18 02:45:21;;;;;;;7.27;6.37;;;16.60;99.90;;;;;;5047130;28;20743;-87
2021/07/18 02:47:48;;;;;;;9.73;6.80;;;16.60;99.90;;;;;;5047872;27;20630;-88
2021/07/18 02:50:17;;;;;;;6.90;6.20;;;16.60;99.90;;;;;;5047320;27;20708;-88
2021/07/18 02:52:45;;;;;;;10.43;6.23;;;16.60;99.90;;;;;;5131072;27;21023;-88
2021/07/18 02:55:13;;;;;;;6.13;5.20;;;16.60;99.90;;;;;;5127024;27;20624;-88
2021/07/18 02:57:40;;;;;;;5.83;5.33;;;16.60;99.90;;;;;;5045339;27;20658;-87
2021/07/18 03:00:09;;;;;;;5.30;4.83;;;16.50;99.90;;;;;;5045768;28;21018;-88
2021/07/18 03:02:39;;;;;;;7.43;6.00;;;16.50;99.90;;;;;;5048315;28;20606;-88
2021/07/18 03:05:11;;;;;;;9.50;6.07;;;16.50;99.90;;;;;;5047268;28;20628;-87
2021/07/18 03:07:40;;;;;;;5.90;5.37;;;16.50;99.90;;;;;;5047938;28;20626;-87
2021/07/18 03:10:10;;;;;;;10.60;5.87;;;16.40;99.90;;;;;;5047656;28;20627;-87
2021/07/18 03:12:40;;;;;;;8.90;5.73;;;16.40;99.90;;;;;;5047233;28;20631;-88
2021/07/18 03:15:10;;;;;;;7.27;6.43;;;16.40;99.90;;;;;;5042859;27;21016;-88
2021/07/18 03:17:39;;;;;;;6.03;5.50;;;16.30;99.90;;;;;;5047563;28;20912;-87
2021/07/18 03:20:08;;;;;;;9.27;6.23;;;16.20;99.90;;;;;;5047324;28;20648;-87
2021/07/18 03:22:36;;;;;;;7.90;7.20;;;16.10;99.90;;;;;;5047588;27;20721;-88
2021/07/18 03:25:05;;;;;;;6.93;5.70;;;16.00;99.90;;;;;;5047231;27;20656;-87
2021/07/18 03:27:35;;;;;;;6.10;5.60;;;16.00;99.90;;;;;;5047310;28;20698;-88
2021/07/18 03:30:06;;;;;;;11.13;6.50;;;15.90;99.90;;;;;;5035326;28;20643;-88
2021/07/18 03:32:33;;;;;;;10.40;7.00;;;15.80;99.90;;;;;;5047146;27;20668;-88
2021/07/18 03:35:03;;;;;;;6.63;6.03;;;15.80;99.90;;;;;;5047304;28;20669;-87
2021/07/18 03:37:32;;;;;;;9.90;6.27;;;15.80;99.90;;;;;;5047618;27;20611;-87
2021/07/18 03:40:02;;;;;;;6.10;5.60;;;15.70;99.90;;;;;;5047249;28;20650;-86
2021/07/18 03:42:31;;;;;;;7.03;6.20;;;15.70;99.90;;;;;;5047615;27;20962;-88
2021/07/18 03:44:59;;;;;;;7.30;6.60;;;15.60;99.90;;;;;;5042526;27;20657;-87
2021/07/18 03:47:27;;;;;;;7.57;6.87;;;15.50;99.90;;;;;;5047090;27;20610;-87
2021/07/18 03:49:56;;;;;;;6.50;5.90;;;15.50;99.90;;;;;;5047140;27;20983;-87
2021/07/18 03:52:27;;;;;;;6.87;6.17;;;15.60;99.90;;;;;;5102500;27;20627;-87
2021/07/18 03:54:57;;;;;;;6.97;6.27;;;15.50;99.90;;;;;;5046945;28;20667;-88
2021/07/18 03:57:25;;;;;;;7.43;6.10;;;15.60;99.90;;;;;;5049145;28;20709;-87
2021/07/18 03:59:55;;;;;;;6.20;5.67;;;15.60;99.90;;;;;;5050637;28;20673;-87
2021/07/18 04:02:23;;;;;;;6.80;5.67;;;15.50;99.90;;;;;;5050480;28;20626;-88
2021/07/18 04:04:52;;;;;;;8.53;6.40;;;15.50;99.90;;;;;;5050311;27;20974;-88
2021/07/18 04:07:22;;;;;;;8.97;6.77;;;15.50;99.90;;;;;;5050031;27;20702;-88
2021/07/18 04:09:55;;;;;;;7.10;5.87;;;15.40;99.90;;;;;;5051251;28;20594;-86
2021/07/18 04:12:27;;;;;;;7.37;6.40;;;15.40;99.90;;;;;;5050686;28;20684;-87
2021/07/18 04:14:57;;;;;;;6.80;5.80;;;15.40;99.90;;;;;;5047317;27;20669;-87
2021/07/18 04:17:26;;;;;;;6.10;5.50;;;15.30;99.90;;;;;;5048693;27;20663;-87
2021/07/18 04:19:56;;;;;;;6.40;5.60;;;15.30;99.90;;;;;;5049985;27;20661;-87
2021/07/18 04:22:27;;;;;;;6.80;6.20;;;15.30;99.90;;;;;;5050889;28;20648;-87
2021/07/18 04:24:59;;;;;;;8.80;6.00;;;15.30;99.90;;;;;;5049705;27;21190;-87
2021/07/18 04:27:27;;;;;;;9.13;6.60;;;15.30;99.90;;;;;;5047869;27;20630;-87
2021/07/18 04:29:54;;;;;;;8.07;6.47;;;15.50;99.90;;;;;;5048908;28;20727;-86
2021/07/18 04:32:24;;;;;;;6.33;5.73;;;15.40;99.90;;;;;;5049970;27;20953;-87
2021/07/18 04:34:52;;;;;;;12.73;6.70;;;15.50;99.90;;;;;;5050006;27;20645;-87
2021/07/18 04:37:21;;;;;;;8.00;5.77;;;15.50;99.90;;;;;;5050044;27;20979;-87
2021/07/18 04:39:50;;;;;;;8.00;6.80;;;15.50;99.90;;;;;;5049951;27;20646;-86
2021/07/18 04:42:20;;;;;;;7.37;6.67;;;15.50;99.90;;;;;;5049915;27;20659;-86
2021/07/18 04:44:48;;;;;;;12.70;6.97;;;15.50;99.90;;;;;;5049405;28;20626;-87
2021/07/18 04:47:17;;;;;;;5.63;5.10;;;15.50;99.90;;;;;;5045933;28;20631;-87
2021/07/18 04:49:50;;;;;;;8.90;5.80;;;15.60;99.90;;;;;;5049515;28;21008;-87
2021/07/18 04:52:18;;;;;;;6.10;5.50;;;15.60;99.90;;;;;;5115168;27;20683;-88
2021/07/18 04:54:47;;;;;;;5.30;4.83;;;15.60;99.90;;;;;;5154929;27;20778;-87
2021/07/18 04:57:15;;;;;;;5.00;4.50;;;15.60;99.90;;;;;;5154827;27;20624;-87
2021/07/18 04:59:44;;;;;;;5.73;4.83;;;15.70;99.90;;;;;;5078944;27;20669;-87
2021/07/18 05:02:12;;;;;;;4.83;4.27;;;15.70;99.90;;;;;;5049234;28;20645;-87
2021/07/18 05:04:41;;;;;;;7.80;5.00;;;15.80;99.90;;;;;;5049326;28;20617;-87
2021/07/18 05:07:10;;;;;;;4.00;3.70;;;15.90;99.90;;;;;;5049542;28;20614;-86
2021/07/18 05:09:37;;;;;;;6.70;3.83;;;16.00;99.90;;;;;;5049893;28;20672;-87
2021/07/18 05:12:05;;;;;;;6.37;3.60;;;16.00;99.90;;;;;;5049363;27;20652;-86
2021/07/18 05:14:33;;;;;;;4.33;3.93;;;16.00;99.90;;;;;;5048935;28;21225;-86
2021/07/18 05:17:02;;;;;;;5.30;3.40;;;16.10;99.90;;;;;;5044598;27;20638;-86
2021/07/18 05:19:29;;;;;;;4.07;3.33;;;16.10;99.90;;;;;;5049584;27;20651;-87
2021/07/18 05:21:57;;;;;;;4.77;4.10;;;16.10;99.90;;;;;;5048930;27;20654;-87
2021/07/18 05:24:25;;;;;;;3.37;3.03;;;16.20;99.90;;;;;;5048673;27;20668;-87
2021/07/18 05:26:53;;;;;;;5.33;3.57;;;16.30;99.90;;;;;;5048995;27;21209;-87
2021/07/18 05:29:20;;;;;;;3.57;3.27;;;16.30;99.90;;;;;;5046347;28;20637;-86
2021/07/18 05:31:48;;;;;;;6.27;3.57;;;16.40;99.90;;;;;;5043879;27;21248;-86
2021/07/18 05:34:17;;;;;;;5.63;3.83;;;16.50;99.90;;;;;;5049153;27;20721;-85
2021/07/18 05:36:45;;;;;;;4.70;3.63;;;16.40;99.90;;;;;;5048938;27;20658;-86
2021/07/18 05:39:13;;;;;;;4.17;3.03;;;16.40;99.90;;;;;;5049357;27;20686;-86
2021/07/18 05:41:41;;;;;;;4.10;3.27;;;16.50;99.90;;;;;;5048988;27;21240;-87
2021/07/18 05:44:09;;;;;;;4.80;3.60;;;16.50;99.90;;;;;;5049001;28;20615;-86
2021/07/18 05:46:36;;;;;;;3.60;3.30;;;16.60;99.90;;;;;;5048565;27;20633;-86
2021/07/18 05:49:04;;;;;;;5.07;3.10;;;16.60;99.90;;;;;;5047794;27;20664;-86
2021/07/18 05:51:33;;;;;;;3.43;3.13;;;16.70;99.90;;;;;;5079771;27;21211;-86
2021/07/18 05:54:01;;;;;;;4.90;3.70;;;16.70;99.90;;;;;;5153959;27;20725;-87
2021/07/18 05:56:28;;;;;;;3.73;2.93;;;16.80;99.90;;;;;;5153613;27;20620;-87
2021/07/18 05:58:56;;;;;;;8.43;3.87;;;16.90;99.90;;;;;;5153758;27;20676;-86
2021/07/18 06:01:24;;;;;;;3.97;3.50;;;16.90;99.90;;;;;;5152973;27;20668;-87
2021/07/18 06:03:52;;;;;;;3.57;2.93;;;17.00;99.90;;;;;;5153899;27;20616;-87
2021/07/18 06:06:20;;;;;;;3.93;2.80;;;17.10;99.90;;;;;;5057645;27;20728;-87
2021/07/18 06:08:49;;;;;;;5.63;3.23;;;17.20;99.90;;;;;;5048541;28;20644;-87
2021/07/18 06:11:17;;;;;;;3.97;2.87;;;17.20;99.90;;;;;;5048388;28;20614;-86
2021/07/18 06:13:45;;;;;;;3.40;2.87;;;17.20;99.90;;;;;;5045513;28;20636;-86
2021/07/18 06:16:12;;;;;;;5.13;2.90;;;17.20;99.90;;;;;;5045357;27;21256;-87
2021/07/18 06:18:39;;;;;;;9.43;3.07;;;17.10;99.90;;;;;;5044838;28;20728;-86
2021/07/18 06:21:07;;;;;;;4.30;3.60;;;17.10;99.90;;;;;;5044841;27;20656;-85
2021/07/18 06:23:34;;;;;;;2.60;2.40;;;17.10;99.90;;;;;;5046745;28;20605;-87
2021/07/18 06:26:04;;;;;;;3.50;3.20;;;17.20;99.90;;;;;;5046362;28;20623;-86
2021/07/18 06:28:32;;;;;;;3.40;2.80;;;17.20;99.90;;;;;;5047552;28;21019;-87
2021/07/18 06:30:59;;;;;;;3.07;2.60;;;17.30;99.90;;;;;;5047533;27;21184;-87
2021/07/18 06:33:26;;;;;;;3.27;2.93;;;17.40;99.90;;;;;;5046794;27;20728;-87
2021/07/18 06:35:53;;;;;;;3.53;2.70;;;17.30;99.90;;;;;;5046362;27;20715;-87
2021/07/18 06:38:20;;;;;;;2.37;2.23;;;17.30;99.90;;;;;;5046325;27;20615;-85
2021/07/18 06:40:47;;;;;;;2.67;2.43;;;17.30;99.90;;;;;;5046735;27;20653;-87
2021/07/18 06:43:15;;;;;;;2.97;2.43;;;17.50;99.90;;;;;;5046949;27;20609;-86
2021/07/18 06:45:42;;;;;;;3.00;2.70;;;17.50;99.90;;;;;;5046313;27;20618;-86
2021/07/18 06:48:10;;;;;;;5.87;3.37;;;17.50;99.90;;;;;;5047084;27;20621;-85
2021/07/18 06:50:37;;;;;;;8.13;3.20;;;17.50;99.90;;;;;;5047144;27;20632;-87
2021/07/18 06:53:04;;;;;;;3.80;2.50;;;17.60;99.90;;;;;;5047079;27;21160;-87
2021/07/18 06:55:31;;;;;;;7.87;2.53;;;17.70;99.90;;;;;;5045589;28;20617;-86
2021/07/18 06:57:58;;;;;;;3.20;2.50;;;17.90;99.90;;;;;;5047594;28;20612;-87
2021/07/18 07:00:27;;;;;;;5.27;2.43;;;17.80;99.90;;;;;;5047687;28;20650;-86
2021/07/18 07:02:54;;;;;;;2.33;2.13;;;17.90;99.90;;;;;;5048184;28;20710;-87
2021/07/18 07:05:21;;;;;;;2.60;2.33;;;17.90;99.90;;;;;;5047347;28;20628;-87
2021/07/18 07:07:48;;;;;;;3.00;2.60;;;17.90;99.60;;;;;;5047221;28;20621;-87
2021/07/18 07:10:16;;;;;;;3.03;2.40;;;17.90;99.70;;;;;;5047496;28;20716;-88
2021/07/18 07:12:50;;;;;;;4.47;2.93;;;18.00;99.90;;;;;;5045846;28;21299;-86
2021/07/18 07:15:17;;;;;;;3.17;2.70;;;18.00;99.60;;;;;;5044662;28;20717;-87
2021/07/18 07:17:47;;;;;;;15.97;2.90;;;17.90;99.80;;;;;;5040765;28;20628;-86
2021/07/18 07:20:15;;;;;;;3.87;2.77;;;17.90;99.90;;;;;;5046188;27;20650;-88
2021/07/18 07:22:43;;;;;;;4.27;2.50;;;17.90;99.50;;;;;;5045719;27;20633;-89
2021/07/18 07:25:13;;;;;;;8.30;2.40;;;18.10;99.90;;;;;;5046617;27;20626;-89
2021/07/18 07:27:42;;;;;;;3.20;2.90;;;18.20;99.90;;;;;;5046904;28;20734;-89
2021/07/18 07:30:10;;;;;;;3.10;2.80;;;18.70;99.90;;;;;;5046829;28;20986;-88
2021/07/18 07:32:38;;;;;;;5.57;2.80;;;18.70;99.90;;;;;;5052303;27;20644;-89
2021/07/18 07:35:18;;;;;;;6.37;2.90;;;18.50;99.70;;;;;;5050399;28;20989;-89
2021/07/18 07:37:46;;;;;;;3.27;2.83;;;18.70;99.90;;;;;;5050957;28;20633;-90
2021/07/18 07:40:17;;;;;;;4.60;2.90;;;18.90;99.60;;;;;;5050310;27;20753;-89
2021/07/18 07:42:51;;;;;;;3.90;3.17;;;18.80;99.60;;;;;;5048218;28;20622;-90
2021/07/18 07:45:26;;;;;;;3.83;2.73;;;18.70;99.10;;;;;;5063690;27;20728;-90
2021/07/18 07:47:53;;;;;;;2.73;2.53;;;18.70;99.50;;;;;;5076318;27;20614;-87
2021/07/18 07:50:25;;;;;;;4.53;3.53;;;18.80;99.30;;;;;;5049323;28;20877;-90
2021/07/18 07:52:55;;;;;;;4.70;2.40;;;18.80;99.70;;;;;;5050643;27;20646;-90
2021/07/18 07:55:23;;;;;;;3.20;2.90;;;18.90;99.90;;;;;;5050107;28;20683;-90
2021/07/18 07:57:52;;;;;;;5.00;2.43;;;19.00;99.10;;;;;;5049307;27;20695;-89
2021/07/18 08:00:23;;;;;;;6.27;2.60;;;19.00;99.40;;;;;;5050253;28;20711;-90
2021/07/18 08:02:55;;;;;;;3.87;3.30;;;19.10;99.20;;;;;;5050073;28;20657;-91
2021/07/18 08:05:28;;;;;;;4.28;3.50;;;19.40;99.70;;;;;;5048911;28;20740;-90
2021/07/18 08:07:55;;;;;;;3.20;3.00;;;19.50;99.50;;;;;;5050641;28;20212;-89
2021/07/18 08:10:25;;;;;;;3.23;2.87;;;19.40;98.70;;;;;;5050804;28;21197;-90
2021/07/18 08:12:53;;;;;;;5.20;2.87;;;19.30;98.90;;;;;;5050653;28;20701;-89
2021/07/18 08:15:50;;;;;;;2.73;2.37;;;19.30;98.50;;;;;;5104017;27;20641;-92
2021/07/18 08:18:20;;;;;;;4.80;3.20;;;19.40;99.50;;;;;;5156295;27;20673;-90
2021/07/18 08:21:01;;;;;;;4.80;3.20;;;19.50;98.80;;;;;;5156152;27;21075;-91
2021/07/18 08:23:33;;;;;;;4.07;3.60;;;19.60;99.90;;;;;;5156576;27;20613;-90
2021/07/18 08:26:00;;;;;;;4.32;3.90;;;20.30;98.80;;;;;;5113849;27;20808;-90
2021/07/18 08:28:29;;;;;;;5.23;2.60;;;20.50;98.10;;;;;;5095014;27;20704;-87
2021/07/18 08:30:58;;;;;;;4.23;3.50;;;20.10;97.90;;;;;;5063640;27;20625;-91
2021/07/18 08:33:25;;;;;;;3.27;2.97;;;20.20;98.30;;;;;;5056711;28;20628;-90
2021/07/18 08:36:02;;;;;;;3.50;3.20;;;20.20;98.30;;;;;;5056748;28;20664;-92
2021/07/18 08:39:13;;;;;;;4.67;3.60;;;20.40;98.60;;;;;;5059307;27;20722;-91
2021/07/18 08:41:45;;;;;;;4.90;3.10;;;20.60;98.00;;;;;;5030587;28;20652;-89
2021/07/18 08:44:13;;;;;;;4.33;2.70;;;20.40;97.30;;;;;;5048491;27;20633;-89
2021/07/18 08:46:41;;;;;;;5.40;3.30;;;20.40;98.10;;;;;;5152932;27;20621;-91
2021/07/18 08:49:09;;;;;;;5.03;3.47;;;20.60;98.20;;;;;;5154890;27;20709;-89
2021/07/18 08:51:39;;;;;;;3.33;2.67;;;20.70;98.00;;;;;;5128902;27;20650;-91
2021/07/18 08:54:18;;;;;;;4.07;3.30;;;20.80;98.60;;;;;;5050116;28;20626;-92
2021/07/18 08:57:08;;;;;;;6.23;3.20;;;21.10;97.60;;;;;;5050393;28;20620;-91
2021/07/18 08:59:42;;;;;;;3.20;3.00;;;21.40;97.30;;;;;;5049391;28;21190;-91
2021/07/18 09:02:11;;;;;;;4.60;3.53;;;21.40;97.40;;;;;;5146902;27;20753;-93
2021/07/18 09:04:38;;;;;;;5.10;3.03;;;21.30;96.00;;;;;;5154645;27;20629;-88
2021/07/18 09:07:14;;;;;;;4.03;2.73;;;20.80;95.70;;;;;;5154738;27;20614;-93
2021/07/18 09:09:41;;;;;;;4.03;3.60;;;20.90;97.30;;;;;;5154711;27;20618;-91
2021/07/18 09:12:13;;;;;;;5.00;2.80;;;21.00;96.80;;;;;;5155447;27;20620;-92
2021/07/18 09:14:46;;;;;;;3.83;3.10;;;21.20;96.70;;;;;;5155090;27;20636;-92
2021/07/18 09:17:25;;;;;;;3.73;3.33;;;21.50;97.30;;;;;;5107509;27;20638;-91
2021/07/18 09:19:54;;;;;;;6.43;5.30;;;21.50;96.20;;;;;;5051786;27;21062;-89
2021/07/18 09:25:45;;;;;;;3.73;3.30;;;21.60;96.40;;;;;;5049470;28;21006;-90
2021/07/18 09:28:17;;;;;;;3.63;3.33;;;21.90;96.20;;;;;;5072557;27;20633;-91
2021/07/18 09:30:50;;;;;;;3.77;3.47;;;22.30;96.70;;;;;;5069648;27;20625;-89
2021/07/18 09:33:31;;;;;;;6.07;3.53;;;22.40;95.80;;;;;;5063279;28;20991;-90
2021/07/18 09:36:12;;;;;;;3.93;3.27;;;22.50;95.30;;;;;;5048787;28;21294;-90
2021/07/18 09:38:42;;;;;;;3.27;3.03;;;22.20;95.00;;;;;;5048682;28;20634;-91
2021/07/18 09:41:20;;;;;;;5.43;3.80;;;21.90;94.80;;;;;;5050329;28;20656;-89
2021/07/18 09:44:02;;;;;;;3.60;2.83;;;22.00;95.40;;;;;;5049917;28;20629;-89
2021/07/18 09:46:32;;;;;;;3.37;3.07;;;22.10;96.00;;;;;;5049088;28;21224;-88
2021/07/18 09:49:02;;;;;;;3.50;2.97;;;22.40;95.80;;;;;;5049156;28;20615;-90
2021/07/18 09:51:36;;;;;;;3.90;3.03;;;22.30;95.50;;;;;;5047800;28;20654;-89
2021/07/18 09:54:13;;;;;;;5.07;3.60;;;22.40;95.40;;;;;;5047683;28;21300;-87
2021/07/18 09:56:41;;;;;;;4.27;3.43;;;22.40;94.60;;;;;;5048945;28;20624;-91
2021/07/18 09:59:08;;;;;;;5.50;3.20;;;22.50;95.20;;;;;;5049349;28;20621;-90
2021/07/18 10:01:36;;;;;;;3.93;2.70;;;22.60;95.30;;;;;;5048659;28;20766;-90
2021/07/18 10:04:04;;;;;;;3.83;2.70;;;22.70;94.80;;;;;;5048962;28;21078;-90
2021/07/18 10:06:34;;;;;;;4.07;3.20;;;22.90;94.30;;;;;;5048271;28;20991;-90
2021/07/18 10:09:09;;;;;;;2.97;2.77;;;23.10;94.70;;;;;;5048685;28;20618;-91
2021/07/18 10:11:38;;;;;;;5.80;3.10;;;23.40;94.00;;;;;;5047953;28;20667;-90
2021/07/18 10:14:05;;;;;;;3.80;2.80;;;23.50;94.70;;;;;;5048370;27;20665;-88
2021/07/18 10:16:33;;;;;;;3.20;2.90;;;23.30;93.60;;;;;;5047835;28;21100;-91
2021/07/18 10:19:00;;;;;;;2.80;2.60;;;23.10;93.70;;;;;;5048843;28;20648;-90
2021/07/18 10:21:30;;;;;;;11.93;3.43;;;23.40;93.60;;;;;;5048438;28;20645;-91
2021/07/18 10:24:00;;;;;;;4.57;2.70;;;23.60;93.40;;;;;;5047914;28;20622;-90
2021/07/18 10:26:30;;;;;;;3.50;2.80;;;23.90;93.20;;;;;;5048193;28;20626;-89
2021/07/18 10:28:58;;;;;;;3.40;2.70;;;24.00;93.20;;;;;;5048344;28;20733;-89
2021/07/18 10:31:31;;;;;;;4.33;2.73;;;24.10;93.10;;;;;;5048662;28;20622;-89
2021/07/18 10:33:59;;;;;;;2.90;2.70;;;24.40;92.80;;;;;;5046780;28;20664;-88
2021/07/18 10:36:27;;;;;;;3.33;2.83;;;24.70;93.10;;;;;;5046946;28;20621;-89
2021/07/18 10:39:01;;;;;;;3.60;3.30;;;24.30;91.50;;;;;;5047488;28;20662;-89
2021/07/18 10:41:41;;;;;;;3.30;3.00;;;24.10;90.50;;;;;;5048128;28;20662;-87
2021/07/18 10:44:15;;;;;;;3.50;3.20;;;24.20;92.10;;;;;;5046920;28;20717;-89
2021/07/18 10:46:56;;;;;;;3.43;2.80;;;24.50;92.70;;;;;;5047451;28;20610;-88
2021/07/18 10:49:50;;;;;;;4.03;2.93;;;24.80;92.40;;;;;;5046952;28;20626;-88
2021/07/18 10:52:18;;;;;;;3.40;3.10;;;25.00;92.00;;;;;;5047952;28;20973;-88
2021/07/18 10:54:46;;;;;;;6.03;3.90;;;25.30;91.70;;;;;;5048910;28;20606;-88
2021/07/18 10:57:32;;;;;;;4.30;3.53;;;25.40;91.20;;;;;;5051264;28;20637;-89
2021/07/18 11:00:20;;;;;;;6.23;3.50;;;25.00;88.10;;;;;;5037927;28;20618;-90
2021/07/18 11:02:47;;;;;;;4.03;3.20;;;25.00;90.60;;;;;;5044156;28;20719;-89
2021/07/18 11:05:18;;;;;;;3.23;2.93;;;25.20;90.90;;;;;;5044784;28;20679;-91
2021/07/18 11:07:55;;;;;;;3.33;3.03;;;25.30;91.20;;;;;;5045193;28;20615;-87
2021/07/18 11:10:24;;;;;;;3.30;3.00;;;25.80;87.60;;;;;;5045283;28;20717;-87
2021/07/18 11:13:02;;;;;;;5.77;2.93;;;26.00;89.80;;;;;;5054812;27;21035;-89
2021/07/18 11:15:35;;;;;;;3.27;2.97;;;25.90;85.50;;;;;;5046342;28;20654;-89
2021/07/18 11:18:06;;;;;;;5.57;3.30;;;26.10;87.70;;;;;;5046207;28;20625;-88
2021/07/18 11:20:54;;;;;;;3.97;2.90;;;26.20;87.30;;;;;;5052043;27;20609;-88
2021/07/18 11:23:27;;;;;;;3.30;2.77;;;26.30;87.50;;;;;;5045922;28;20626;-90
2021/07/18 11:25:59;;;;;;;3.07;2.80;;;26.60;85.10;;;;;;5044447;28;20650;-90
2021/07/18 11:28:52;;;;;;;3.40;2.77;;;26.80;83.30;;;;;;5041956;28;20654;-88
2021/07/18 11:31:30;;;;;;;6.03;3.17;;;26.80;81.80;;;;;;5045375;28;20602;-88
2021/07/18 11:34:10;;;;;;;4.40;2.90;;;26.80;82.90;;;;;;5040181;28;21178;-87
2021/07/18 11:37:00;;;;;;;3.73;3.10;;;26.90;82.80;;;;;;5046271;28;20616;-90
2021/07/18 11:39:28;;;;;;;5.43;3.07;;;26.30;83.10;;;;;;5046568;28;20678;-91
2021/07/18 11:41:56;;;;;;;3.37;2.70;;;26.60;81.20;;;;;;5042398;28;21550;-91
2021/07/18 11:44:28;;;;;;;3.70;2.33;;;26.90;81.00;;;;;;5046232;28;20630;-91
2021/07/18 11:46:59;;;;;;;3.37;3.07;;;27.40;79.90;;;;;;5045881;28;21367;-89
2021/07/18 11:49:29;;;;;;;4.60;3.10;;;27.40;79.10;;;;;;5047310;28;21164;-87
2021/07/18 11:52:00;;;;;;;2.80;2.60;;;27.70;75.90;;;;;;5046477;28;21197;-92
2021/07/18 11:54:28;;;;;;;2.67;2.47;;;28.10;77.10;;;;;;5045859;28;20629;-89
2021/07/18 11:56:55;;;;;;;5.83;3.57;;;28.50;74.30;;;;;;5046197;28;20618;-88
2021/07/18 11:59:24;;;;;;;5.07;3.20;;;28.30;74.40;;;;;;5042282;28;20613;-88
2021/07/18 12:01:53;;;;;;;2.77;2.57;;;28.50;75.20;;;;;;5044450;28;20727;-89
2021/07/18 12:04:26;;;;;;;5.80;3.03;;;28.70;72.50;;;;;;5043994;28;21278;-90
2021/07/18 12:06:58;;;;;;;5.07;2.90;;;29.30;68.10;;;;;;5052279;28;21224;-89
2021/07/18 12:09:27;;;;;;;2.87;2.67;;;29.90;70.80;;;;;;5062859;27;20621;-91
2021/07/18 12:12:01;;;;;;;4.03;3.10;;;30.90;67.30;;;;;;5058173;28;20618;-92
2021/07/18 12:14:32;;;;;;;3.30;2.90;;;32.10;61.30;;;;;;5049300;27;20665;-87
2021/07/18 12:17:04;;;;;;;3.87;3.57;;;32.00;59.10;;;;;;5055415;28;20662;-91
2021/07/18 12:19:34;;;;;;;3.23;2.93;;;32.20;58.30;;;;;;5055511;28;20626;-91
2021/07/18 12:22:04;;;;;;;8.30;3.97;;;32.90;56.80;;;;;;5059045;27;20656;-91
2021/07/18 12:24:32;;;;;;;3.47;3.27;;;33.20;57.60;;;;;;5056778;28;20628;-91
2021/07/18 12:27:07;;;;;;;4.07;3.77;;;32.70;55.90;;;;;;5051571;27;20658;-89
2021/07/18 12:29:37;;;;;;;4.80;4.00;;;33.10;56.70;;;;;;5047873;28;20625;-90
2021/07/18 12:32:06;;;;;;;5.03;4.53;;;33.70;56.10;;;;;;5043531;27;20664;-91
2021/07/18 12:34:37;;;;;;;4.87;4.47;;;34.50;55.70;;;;;;5049021;28;20630;-90
2021/07/18 12:37:07;;;;;;;5.67;5.27;;;34.80;54.50;;;;;;5049148;28;21169;-90
2021/07/18 12:39:35;;;;;;;7.17;6.53;;;35.00;51.00;;;;;;5047347;28;20622;-89
2021/07/18 12:42:05;;;;;;;7.13;6.50;;;34.00;50.30;;;;;;5049098;28;20200;-90
2021/07/18 12:44:34;;;;;;;7.60;7.00;;;33.00;54.20;;;;;;5047702;28;20622;-90
2021/07/18 12:47:24;;;;;;;8.30;7.60;;;34.20;52.20;;;;;;5044390;28;20649;-92
2021/07/18 12:50:17;;;;;;;7.30;6.60;;;34.90;51.90;;;;;;5049975;28;20570;-90
2021/07/18 12:52:53;;;;;;;7.20;6.47;;;35.00;52.20;;;;;;5048554;28;20661;-90
2021/07/18 12:55:22;;;;;;;6.43;5.93;;;34.40;52.80;;;;;;5048911;28;20203;-91
2021/07/18 12:57:49;;;;;;;8.20;7.50;;;34.30;52.50;;;;;;5049647;28;20265;-89
2021/07/18 13:00:21;;;;;;;7.97;7.23;;;33.20;50.50;;;;;;5049483;28;20667;-89
2021/07/18 13:02:48;;;;;;;8.77;8.03;;;31.60;54.30;;;;;;5045270;28;21189;-91